createdAt,value
2022-08-03T00:02:24.235Z,20.05
2022-08-03T00:07:26.960Z,19.96
2022-08-03T00:12:30.042Z,19.86
2022-08-03T00:17:53.613Z,19.78
2022-08-03T00:22:55.786Z,19.73
2022-08-03T00:27:59.256Z,19.65
2022-08-03T00:33:02.890Z,19.60
2022-08-03T00:38:05.970Z,19.53
2022-08-03T00:43:09.164Z,19.45
2022-08-03T00:48:29.700Z,19.42
2022-08-03T00:53:37.349Z,19.39
2022-08-03T00:58:41.552Z,19.37
2022-08-03T01:03:44.343Z,19.30
2022-08-03T01:09:27.879Z,19.27
2022-08-03T01:14:52.324Z,19.23
2022-08-03T01:20:07.487Z,19.22
2022-08-03T01:25:54.330Z,19.21
2022-08-03T01:31:03.923Z,19.17
2022-08-03T01:36:14.674Z,19.16
2022-08-03T01:41:31.966Z,19.15
2022-08-03T01:46:38.504Z,19.10
2022-08-03T01:51:58.544Z,19.07
2022-08-03T01:57:08.186Z,19.04
2022-08-03T02:02:28.642Z,18.99
2022-08-03T02:07:37.891Z,18.94
2022-08-03T02:12:44.675Z,18.86
2022-08-03T02:17:50.411Z,18.81
2022-08-03T02:22:53.374Z,18.79
2022-08-03T02:28:02.440Z,18.76
2022-08-03T02:33:11.427Z,18.75
2022-08-03T02:38:18.579Z,18.72
2022-08-03T02:43:24.286Z,18.74
2022-08-03T02:48:31.763Z,18.76
2022-08-03T02:53:36.277Z,18.74
2022-08-03T02:58:42.999Z,18.74
2022-08-03T03:03:46.895Z,18.78
2022-08-03T03:08:52.518Z,18.78
2022-08-03T03:13:58.683Z,18.74
2022-08-03T03:19:03.153Z,18.82
2022-08-03T03:24:07.829Z,18.86
2022-08-03T03:29:10.892Z,18.91
2022-08-03T03:34:14.015Z,18.95
2022-08-03T03:39:17.075Z,18.95
2022-08-03T03:44:20.315Z,18.94
2022-08-03T03:49:23.600Z,18.96
2022-08-03T03:54:29.304Z,18.98
2022-08-03T03:59:32.310Z,19.02
2022-08-03T04:04:57.606Z,19.03
2022-08-03T04:10:21.062Z,19.04
2022-08-03T04:15:27.013Z,19.08
2022-08-03T04:20:33.098Z,19.12
2022-08-03T04:25:38.620Z,19.22
2022-08-03T04:30:47.870Z,19.31
2022-08-03T04:36:02.382Z,19.44
2022-08-03T04:41:08.128Z,19.57
2022-08-03T04:46:12.261Z,19.70
2022-08-03T04:51:15.819Z,19.80
2022-08-03T04:56:18.721Z,19.90
2022-08-03T05:01:22.690Z,20.00
2022-08-03T05:06:26.287Z,20.11
2022-08-03T05:11:29.220Z,20.23
2022-08-03T05:16:33.095Z,20.36
2022-08-03T05:21:41.608Z,20.49
2022-08-03T05:26:55.606Z,20.69
2022-08-03T05:31:58.498Z,20.85
2022-08-03T05:37:01.353Z,21.00
2022-08-03T05:42:04.556Z,21.48
2022-08-03T05:47:07.631Z,21.95
2022-08-03T05:52:12.843Z,21.96
2022-08-03T05:57:17.409Z,21.98
2022-08-03T06:02:20.258Z,22.09
2022-08-03T06:07:24.395Z,22.29
2022-08-03T06:12:27.299Z,22.50
2022-08-03T06:17:37.329Z,22.74
2022-08-03T06:22:50.881Z,22.97
2022-08-03T06:28:03.883Z,23.18
2022-08-03T06:33:08.321Z,23.37
2022-08-03T06:38:11.255Z,23.56
2022-08-03T06:43:16.109Z,23.80
2022-08-03T06:48:18.901Z,24.06
2022-08-03T06:53:21.799Z,24.31
2022-08-03T06:58:24.661Z,24.58
2022-08-03T07:03:27.639Z,24.81
2022-08-03T07:08:33.614Z,25.04
2022-08-03T07:13:37.712Z,25.24
2022-08-03T07:18:40.739Z,25.35
2022-08-03T07:23:43.819Z,25.46
2022-08-03T07:28:46.653Z,25.38
2022-08-03T07:33:49.565Z,25.25
2022-08-03T07:38:52.532Z,25.19
2022-08-03T07:43:55.485Z,25.22
2022-08-03T07:48:58.382Z,25.42
2022-08-03T07:54:01.756Z,25.67
2022-08-03T07:59:04.653Z,25.95
2022-08-03T08:04:07.622Z,26.13
2022-08-03T08:09:11.694Z,26.34
2022-08-03T08:14:14.561Z,26.56
2022-08-03T08:19:17.589Z,26.76
2022-08-03T08:24:21.790Z,26.97
2022-08-03T08:29:25.435Z,27.19
2022-08-03T08:34:28.400Z,27.34
2022-08-03T08:39:34.879Z,27.59
2022-08-03T08:44:38.310Z,27.80
2022-08-03T08:49:53.399Z,27.90
2022-08-03T08:55:08.700Z,28.05
2022-08-03T09:00:15.309Z,28.17
2022-08-03T09:05:31.472Z,28.26
2022-08-03T09:10:43.885Z,28.34
2022-08-03T09:15:57.196Z,28.46
2022-08-03T09:21:35.523Z,28.57
2022-08-03T09:26:38.713Z,28.60
2022-08-03T09:31:46.036Z,28.59
2022-08-03T09:36:53.998Z,28.74
2022-08-03T09:42:18.282Z,28.85
2022-08-03T09:47:33.930Z,28.69
2022-08-03T09:52:52.378Z,28.75
2022-08-03T09:58:10.433Z,28.94
2022-08-03T10:03:13.540Z,29.17
2022-08-03T10:08:19.186Z,29.28
2022-08-03T10:13:23.449Z,29.44
2022-08-03T10:18:26.316Z,29.49
2022-08-03T10:23:34.167Z,29.53
2022-08-03T10:28:45.335Z,29.84
2022-08-03T10:33:53.069Z,29.97
2022-08-03T10:38:57.206Z,30.17
2022-08-03T10:44:10.799Z,30.32
2022-08-03T10:49:16.247Z,30.56
2022-08-03T10:55:03.463Z,30.70
2022-08-03T11:00:11.857Z,30.97
2022-08-03T11:05:29.809Z,31.17
2022-08-03T11:10:32.828Z,31.25
2022-08-03T11:15:36.580Z,31.23
2022-08-03T11:20:47.578Z,31.40
2022-08-03T11:26:15.527Z,31.62
2022-08-03T11:31:48.604Z,31.82
2022-08-03T11:37:28.708Z,31.75
2022-08-03T11:42:36.563Z,31.69
2022-08-03T11:47:50.280Z,31.86
2022-08-03T11:52:54.964Z,32.14
2022-08-03T11:59:18.813Z,32.36
2022-08-03T12:03:23.898Z,32.65
2022-08-03T12:08:27.957Z,32.52
2022-08-03T12:14:49.545Z,32.54
2022-08-03T12:19:20.045Z,32.79
2022-08-03T12:24:22.920Z,32.58
2022-08-03T12:29:26.423Z,32.42
2022-08-03T12:34:49.209Z,32.63
2022-08-03T12:40:00.638Z,32.76
2022-08-03T12:45:32.992Z,33.27
2022-08-03T12:50:38.697Z,33.48
2022-08-03T12:56:04.635Z,33.68
2022-08-03T13:01:10.279Z,33.83
2022-08-03T13:06:15.636Z,33.63
2022-08-03T13:11:22.836Z,33.45
2022-08-03T13:16:46.190Z,33.31
2022-08-03T13:22:02.122Z,33.26
2022-08-03T13:28:02.211Z,33.03
2022-08-03T13:32:30.647Z,33.00
2022-08-03T13:37:34.073Z,32.76
2022-08-03T13:42:38.882Z,32.45
2022-08-03T13:47:42.087Z,32.08
2022-08-03T13:52:46.375Z,31.77
2022-08-03T13:58:04.488Z,31.49
2022-08-03T14:03:14.133Z,31.46
2022-08-03T14:08:17.438Z,31.67
2022-08-03T14:13:20.249Z,31.99
2022-08-03T14:18:27.710Z,32.32
2022-08-03T14:23:40.072Z,32.73
2022-08-03T14:28:42.862Z,33.10
2022-08-03T14:33:45.649Z,33.45
2022-08-03T14:38:48.453Z,33.73
2022-08-03T14:44:01.051Z,33.74
2022-08-03T14:50:37.749Z,33.66
2022-08-03T14:54:31.045Z,33.65
2022-08-03T14:59:55.798Z,33.85
2022-08-03T15:04:56.987Z,33.81
2022-08-03T15:10:00.001Z,33.48
2022-08-03T15:15:06.135Z,33.19
2022-08-03T15:20:22.557Z,33.36
2022-08-03T15:26:28.120Z,33.62
2022-08-03T15:30:52.593Z,33.67
2022-08-03T15:35:56.664Z,33.63
2022-08-03T15:41:00.249Z,33.65
2022-08-03T15:46:28.384Z,33.69
2022-08-03T15:51:26.325Z,33.43
2022-08-03T15:56:29.132Z,32.91
2022-08-03T16:01:32.109Z,32.39
2022-08-03T16:06:36.277Z,31.89
2022-08-03T16:11:39.330Z,31.53
2022-08-03T16:16:42.435Z,31.17
2022-08-03T16:21:47.402Z,30.85
2022-08-03T16:26:51.836Z,30.51
2022-08-03T16:31:54.638Z,30.17
2022-08-03T16:36:57.627Z,29.92
2022-08-03T16:42:01.868Z,29.71
2022-08-03T16:47:04.962Z,29.53
2022-08-03T16:52:07.855Z,29.38
2022-08-03T16:57:10.737Z,29.30
2022-08-03T17:02:26.293Z,29.18
2022-08-03T17:07:30.397Z,29.08
2022-08-03T17:12:33.307Z,29.00
2022-08-03T17:17:53.406Z,28.94
2022-08-03T17:23:02.989Z,28.88
2022-08-03T17:28:49.758Z,28.77
2022-08-03T17:33:35.611Z,28.60
2022-08-03T17:38:41.287Z,28.47
2022-08-03T17:44:15.465Z,28.30
2022-08-03T17:49:25.000Z,28.17
2022-08-03T17:54:49.283Z,27.98
2022-08-03T18:00:33.711Z,27.79
2022-08-03T18:06:11.682Z,27.63
2022-08-03T18:11:14.862Z,27.48
2022-08-03T18:17:01.586Z,27.29
2022-08-03T18:22:04.582Z,27.11
2022-08-03T18:27:10.698Z,26.98
2022-08-03T18:32:17.020Z,26.83
2022-08-03T18:37:26.148Z,26.64
2022-08-03T18:42:29.118Z,26.49
2022-08-03T18:47:59.764Z,26.25
2022-08-03T18:53:21.834Z,26.01
2022-08-03T18:59:02.752Z,25.81
2022-08-03T19:04:31.363Z,25.66
2022-08-03T19:09:55.875Z,25.58
2022-08-03T19:20:31.890Z,25.43
2022-08-03T19:25:40.429Z,25.35
2022-08-03T19:30:53.635Z,25.23
2022-08-03T19:35:57.522Z,25.09
2022-08-03T19:41:05.732Z,24.98
2022-08-03T19:46:14.089Z,24.84
2022-08-03T19:51:17.528Z,24.65
2022-08-03T19:56:30.571Z,24.43
2022-08-03T20:01:50.226Z,24.18
2022-08-03T20:06:57.309Z,23.98
2022-08-03T20:12:00.795Z,23.86
2022-08-03T20:17:03.677Z,23.78
2022-08-03T20:22:14.498Z,23.74
2022-08-03T20:27:20.583Z,23.66
2022-08-03T20:32:24.591Z,23.55
2022-08-03T20:37:27.742Z,23.45
2022-08-03T20:42:33.981Z,23.34
2022-08-03T20:47:39.125Z,23.19
2022-08-03T20:52:54.826Z,23.05
2022-08-03T20:57:59.499Z,22.99
2022-08-03T21:03:04.229Z,22.86
2022-08-03T21:08:10.775Z,22.80
2022-08-03T21:13:01.802Z,25.52
2022-08-03T21:13:24.401Z,22.72
2022-08-03T21:18:30.902Z,22.63
2022-08-03T21:23:47.878Z,22.54
2022-08-03T21:28:55.942Z,22.43
2022-08-03T21:34:03.519Z,22.34
2022-08-03T21:39:09.344Z,22.25
2022-08-03T21:44:12.537Z,22.16
2022-08-03T21:50:05.167Z,22.11
2022-08-03T21:54:43.573Z,22.04
2022-08-03T21:59:57.797Z,21.96
2022-08-03T22:05:04.958Z,21.85
2022-08-03T22:10:10.159Z,21.72
2022-08-03T22:15:14.530Z,21.62
2022-08-03T22:20:19.347Z,21.55
2022-08-03T22:25:29.213Z,21.53
2022-08-03T22:30:33.325Z,21.49
2022-08-03T22:35:47.540Z,21.49
2022-08-03T22:40:52.465Z,21.46
2022-08-03T22:46:09.742Z,21.42
2022-08-03T22:51:16.894Z,21.40
2022-08-03T22:56:20.038Z,21.39
2022-08-03T23:01:25.647Z,21.37
2022-08-03T23:06:36.033Z,21.31
2022-08-03T23:11:45.554Z,21.24
2022-08-03T23:16:54.186Z,21.14
2022-08-03T23:22:03.580Z,21.05
2022-08-03T23:27:09.461Z,20.88
2022-08-03T23:32:14.307Z,20.81
2022-08-03T23:37:19.747Z,20.77
2022-08-03T23:42:24.046Z,20.68
2022-08-03T23:47:46.436Z,20.65
2022-08-03T23:52:58.470Z,20.57
2022-08-03T23:58:32.260Z,20.46
